createdAt,value
2023-05-02T00:00:01.642Z,101156.78
2023-05-02T00:02:34.765Z,101171.59
2023-05-02T00:05:05.280Z,101175.19
2023-05-02T00:07:34.831Z,101168.25
2023-05-02T00:10:03.881Z,101177.22
2023-05-02T00:12:34.745Z,101116.28
2023-05-02T00:15:03.758Z,101152.78
2023-05-02T00:17:34.906Z,101154.47
2023-05-02T00:20:05.168Z,101186.00
2023-05-02T00:22:34.313Z,101182.09
2023-05-02T00:25:03.828Z,101187.44
2023-05-02T00:27:35.027Z,101183.53
2023-05-02T00:30:04.247Z,101184.00
2023-05-02T00:32:33.470Z,101185.47
2023-05-02T00:35:02.438Z,101194.78
2023-05-02T00:37:32.203Z,101196.31
2023-05-02T00:40:02.338Z,101195.13
2023-05-02T00:42:36.634Z,101204.50
2023-05-02T00:45:07.074Z,101195.97
2023-05-02T00:47:36.825Z,101204.25
2023-05-02T00:50:06.994Z,101204.84
2023-05-02T00:52:36.162Z,101212.16
2023-05-02T00:55:06.013Z,101187.38
2023-05-02T00:57:36.462Z,101214.94
2023-05-02T01:00:07.075Z,101210.59
2023-05-02T01:02:44.840Z,101206.72
2023-05-02T01:05:20.282Z,101211.31
2023-05-02T01:08:02.269Z,101225.91
2023-05-02T01:10:40.111Z,101233.09
2023-05-02T01:13:14.930Z,101224.50
2023-05-02T01:15:46.027Z,101191.91
2023-05-02T01:18:19.675Z,101206.66
2023-05-02T01:20:53.793Z,101214.88
2023-05-02T01:23:32.243Z,101223.84
2023-05-02T01:26:15.226Z,101205.78
2023-05-02T01:29:00.401Z,101214.25
2023-05-02T01:31:34.431Z,101197.44
2023-05-02T01:34:06.012Z,101224.69
2023-05-02T01:36:38.047Z,101232.13
2023-05-02T01:39:11.068Z,101226.81
2023-05-02T01:41:41.889Z,101182.25
2023-05-02T01:44:17.376Z,101187.03
2023-05-02T01:46:47.768Z,101236.94
2023-05-02T01:49:17.304Z,101240.59
2023-05-02T01:51:49.209Z,101238.13
2023-05-02T01:54:21.880Z,101248.00
2023-05-02T01:56:51.371Z,101242.03
2023-05-02T01:59:24.238Z,101244.03
2023-05-02T02:01:55.417Z,101176.69
2023-05-02T02:04:27.341Z,101237.13
2023-05-02T02:07:02.368Z,101238.28
2023-05-02T02:09:33.836Z,101238.28
2023-05-02T02:12:08.038Z,101245.97
2023-05-02T02:14:45.339Z,101239.66
2023-05-02T02:17:18.553Z,101245.97
2023-05-02T02:19:50.586Z,101199.59
2023-05-02T02:22:22.784Z,101242.69
2023-05-02T02:24:54.923Z,101241.22
2023-05-02T02:27:24.074Z,101248.03
2023-05-02T02:29:54.500Z,101249.72
2023-05-02T02:32:25.559Z,101251.50
2023-05-02T02:34:55.438Z,101231.03
2023-05-02T02:37:32.568Z,101218.28
2023-05-02T02:40:11.864Z,101212.78
2023-05-02T02:42:46.279Z,101180.13
2023-05-02T02:45:40.309Z,101205.38
2023-05-02T02:48:19.834Z,101195.66
2023-05-02T02:50:59.924Z,101227.34
2023-05-02T02:53:35.917Z,101193.06
2023-05-02T02:56:09.429Z,101253.94
2023-05-02T02:58:51.273Z,101236.09
2023-05-02T03:01:23.537Z,101246.69
2023-05-02T03:03:58.906Z,101218.38
2023-05-02T03:06:28.639Z,101257.63
2023-05-02T03:09:00.520Z,101268.31
2023-05-02T03:11:32.336Z,101231.47
2023-05-02T03:14:01.582Z,101272.22
2023-05-02T03:16:40.042Z,101275.94
2023-05-02T03:19:13.825Z,101243.84
2023-05-02T03:21:43.655Z,101282.38
2023-05-02T03:24:20.869Z,101264.09
2023-05-02T03:26:50.979Z,101278.44
2023-05-02T03:29:25.799Z,101293.00
2023-05-02T03:31:56.987Z,101291.00
2023-05-02T03:34:26.167Z,101292.34
2023-05-02T03:36:55.999Z,101275.66
2023-05-02T03:39:25.135Z,101287.00
2023-05-02T03:41:54.471Z,101302.53
2023-05-02T03:44:29.537Z,101300.94
2023-05-02T03:47:01.055Z,101303.31
2023-05-02T03:49:32.401Z,101313.56
2023-05-02T03:52:05.188Z,101269.91
2023-05-02T03:54:37.272Z,101310.41
2023-05-02T03:57:08.301Z,101314.03
2023-05-02T03:59:42.894Z,101289.69
2023-05-02T04:02:25.467Z,101289.06
2023-05-02T04:04:57.410Z,101314.88
2023-05-02T04:07:26.648Z,101307.53
2023-05-02T04:10:01.930Z,101310.03
2023-05-02T04:12:34.713Z,101307.47
2023-05-02T04:15:04.520Z,101301.47
2023-05-02T04:17:35.252Z,101327.09
2023-05-02T04:20:05.936Z,101321.00
2023-05-02T04:22:39.862Z,101314.91
2023-05-02T04:25:11.052Z,101326.97
2023-05-02T04:27:43.008Z,101333.91
2023-05-02T04:30:15.380Z,101304.69
2023-05-02T04:32:51.099Z,101330.41
2023-05-02T04:35:20.663Z,101334.41
2023-05-02T04:37:50.127Z,101297.59
2023-05-02T04:40:20.258Z,101331.13
2023-05-02T04:42:52.890Z,101316.44
2023-05-02T04:45:24.983Z,101339.16
2023-05-02T04:47:56.979Z,101326.59
2023-05-02T04:50:28.098Z,101329.84
2023-05-02T04:52:57.237Z,101344.41
2023-05-02T04:55:28.058Z,101340.13
2023-05-02T04:57:57.704Z,101345.28
2023-05-02T05:00:28.119Z,101301.84
2023-05-02T05:03:00.950Z,101328.38
2023-05-02T05:05:31.033Z,101346.00
2023-05-02T05:08:01.014Z,101320.84
2023-05-02T05:10:34.131Z,101345.88
2023-05-02T05:13:04.426Z,101345.78
2023-05-02T05:15:34.830Z,101318.53
2023-05-02T05:18:07.229Z,101331.56
2023-05-02T05:20:36.728Z,101337.69
2023-05-02T05:23:07.665Z,101362.03
2023-05-02T05:25:37.837Z,101352.59
2023-05-02T05:28:07.243Z,101349.59
2023-05-02T05:30:40.415Z,101350.28
2023-05-02T05:33:14.882Z,101344.25
2023-05-02T05:35:45.882Z,101357.28
2023-05-02T05:38:15.064Z,101357.81
2023-05-02T05:40:50.549Z,101346.66
2023-05-02T05:43:20.281Z,101351.19
2023-05-02T05:45:49.852Z,101360.75
2023-05-02T05:48:20.513Z,101347.50
2023-05-02T05:50:50.369Z,101364.63
2023-05-02T05:53:19.699Z,101362.91
2023-05-02T05:55:51.259Z,101354.13
2023-05-02T05:58:21.896Z,101357.97
2023-05-02T06:00:52.844Z,101337.66
2023-05-02T06:03:23.941Z,101349.63
2023-05-02T06:05:53.516Z,101305.88
2023-05-02T06:08:23.182Z,101332.94
2023-05-02T06:10:52.283Z,101360.09
2023-05-02T06:13:21.324Z,101351.03
2023-05-02T06:15:51.733Z,101351.78
2023-05-02T06:18:22.589Z,101330.22
2023-05-02T06:20:52.304Z,101342.31
2023-05-02T06:23:21.620Z,101355.41
2023-05-02T06:25:51.473Z,101353.03
2023-05-02T06:28:20.938Z,101350.94
2023-05-02T06:30:58.673Z,101345.47
2023-05-02T06:33:29.815Z,101348.41
2023-05-02T06:36:01.649Z,101346.13
2023-05-02T06:38:31.656Z,101363.13
2023-05-02T06:41:01.151Z,101350.25
2023-05-02T06:43:30.257Z,101353.22
2023-05-02T06:46:00.367Z,101345.94
2023-05-02T06:48:31.638Z,101358.88
2023-05-02T06:51:02.086Z,101305.66
2023-05-02T06:53:33.153Z,101265.13
2023-05-02T06:56:03.434Z,101360.72
2023-05-02T06:58:33.415Z,101369.84
2023-05-02T07:01:03.352Z,101357.94
2023-05-02T07:03:36.516Z,101359.16
2023-05-02T07:06:06.055Z,101340.81
2023-05-02T07:08:37.434Z,101363.13
2023-05-02T07:11:06.775Z,101365.69
2023-05-02T07:13:39.735Z,101361.06
2023-05-02T07:16:09.398Z,101362.53
2023-05-02T07:18:40.092Z,101340.28
2023-05-02T07:21:09.125Z,101356.31
2023-05-02T07:23:38.182Z,101364.09
2023-05-02T07:26:08.156Z,101366.19
2023-05-02T07:28:38.388Z,101362.63
2023-05-02T07:31:07.836Z,101362.41
2023-05-02T07:33:37.501Z,101341.13
2023-05-02T07:36:08.158Z,101364.50
2023-05-02T07:38:40.040Z,101363.16
2023-05-02T07:41:09.889Z,101367.25
2023-05-02T07:43:39.609Z,101364.44
2023-05-02T07:46:08.967Z,101376.91
2023-05-02T07:48:38.460Z,101349.56
2023-05-02T07:51:11.139Z,101352.66
2023-05-02T07:54:10.621Z,101372.63
2023-05-02T07:56:48.939Z,101356.44
2023-05-02T07:59:18.068Z,101365.72
2023-05-02T08:01:49.089Z,101333.81
2023-05-02T08:04:18.481Z,101359.34
2023-05-02T08:06:49.197Z,101347.97
2023-05-02T08:09:18.537Z,101354.69
2023-05-02T08:11:47.909Z,101332.69
2023-05-02T08:14:26.149Z,101358.47
2023-05-02T08:16:57.609Z,101341.09
2023-05-02T08:19:27.277Z,101362.34
2023-05-02T08:21:58.407Z,101357.97
2023-05-02T08:24:28.452Z,101307.03
2023-05-02T08:26:57.819Z,101360.25
2023-05-02T08:29:26.930Z,101319.78
2023-05-02T08:31:56.268Z,101350.69
2023-05-02T08:34:32.487Z,101343.25
2023-05-02T08:37:05.566Z,101330.22
2023-05-02T08:39:34.944Z,101342.94
2023-05-02T08:42:13.963Z,101337.81
2023-05-02T08:44:47.598Z,101327.31
2023-05-02T08:47:21.907Z,101339.13
2023-05-02T08:49:52.867Z,101309.22
2023-05-02T08:52:35.198Z,101298.44
2023-05-02T08:55:05.865Z,101321.06
2023-05-02T08:57:35.067Z,101317.34
2023-05-02T09:00:10.289Z,101313.53
2023-05-02T09:02:53.777Z,101310.25
2023-05-02T09:05:26.432Z,101307.22
2023-05-02T09:07:59.652Z,101302.50
2023-05-02T09:10:32.152Z,101304.75
2023-05-02T09:13:34.181Z,101301.81
2023-05-02T09:16:05.196Z,101286.50
2023-05-02T09:18:39.720Z,101291.41
2023-05-02T09:21:12.950Z,101290.41
2023-05-02T09:23:43.994Z,101284.38
2023-05-02T09:26:16.798Z,101286.88
2023-05-02T09:28:48.977Z,101285.69
2023-05-02T09:31:49.855Z,101260.78
2023-05-02T09:34:18.514Z,101273.41
2023-05-02T09:36:51.063Z,101263.25
2023-05-02T09:39:25.833Z,101225.88
2023-05-02T09:41:56.132Z,101162.28
2023-05-02T09:44:26.937Z,101212.53
2023-05-02T09:46:59.187Z,101273.69
2023-05-02T09:49:41.533Z,101273.03
2023-05-02T09:52:14.268Z,101263.69
2023-05-02T09:54:46.879Z,101271.31
2023-05-02T09:57:15.951Z,101254.97
2023-05-02T09:59:55.421Z,101273.69
2023-05-02T10:02:26.258Z,101272.00
2023-05-02T10:04:58.556Z,101268.72
2023-05-02T10:07:28.543Z,101267.13
2023-05-02T10:10:02.938Z,101268.19
2023-05-02T10:12:34.110Z,101262.84
2023-05-02T10:15:06.107Z,101256.19
2023-05-02T10:17:43.400Z,101247.25
2023-05-02T10:20:20.150Z,101260.63
2023-05-02T10:22:52.042Z,101249.44
2023-05-02T10:25:23.093Z,101249.88
2023-05-02T10:27:55.280Z,101236.78
2023-05-02T10:30:26.157Z,101222.13
2023-05-02T10:32:56.017Z,101241.34
2023-05-02T10:35:27.315Z,101217.94
2023-05-02T10:37:58.227Z,101234.00
2023-05-02T10:40:29.358Z,101190.47
2023-05-02T10:42:59.151Z,101231.25
2023-05-02T10:45:33.651Z,101226.34
2023-05-02T10:48:20.430Z,101234.59
2023-05-02T10:50:51.557Z,101229.28
2023-05-02T10:53:33.502Z,101226.75
2023-05-02T10:56:22.661Z,101232.28
2023-05-02T10:58:53.635Z,101231.59
2023-05-02T11:01:37.107Z,101226.97
2023-05-02T11:04:08.227Z,101218.97
2023-05-02T11:06:40.137Z,101231.22
2023-05-02T11:09:32.634Z,101223.03
2023-05-02T11:12:04.920Z,101223.41
2023-05-02T11:14:50.015Z,101220.63
2023-05-02T11:17:20.854Z,101213.91
2023-05-02T11:20:23.533Z,101205.72
2023-05-02T11:22:54.232Z,101217.63
2023-05-02T11:25:34.782Z,101193.41
2023-05-02T11:28:07.632Z,101197.44
2023-05-02T11:30:42.149Z,101206.00
2023-05-02T11:33:20.333Z,101211.13
2023-05-02T11:35:51.565Z,101197.50
2023-05-02T11:38:22.591Z,101206.34
2023-05-02T11:40:57.349Z,101204.69
2023-05-02T11:43:31.784Z,101202.03
2023-05-02T11:46:03.062Z,101190.03
2023-05-02T11:48:34.596Z,101200.91
2023-05-02T11:51:07.440Z,101189.34
2023-05-02T11:53:41.676Z,101157.09
2023-05-02T11:56:10.838Z,101191.34
2023-05-02T11:58:41.826Z,101166.03
2023-05-02T12:01:15.113Z,101188.75
2023-05-02T12:03:45.171Z,101185.56
2023-05-02T12:06:18.841Z,101182.94
2023-05-02T12:08:49.401Z,101180.88
2023-05-02T12:11:19.555Z,101159.88
2023-05-02T12:13:51.695Z,101174.75
2023-05-02T12:16:21.510Z,101178.94
2023-05-02T12:18:51.189Z,101166.66
2023-05-02T12:21:20.808Z,101159.88
2023-05-02T12:23:50.018Z,101164.47
2023-05-02T12:26:21.468Z,101159.84
2023-05-02T12:28:55.030Z,101169.53
2023-05-02T12:31:25.295Z,101158.38
2023-05-02T12:33:58.084Z,101162.50
2023-05-02T12:36:29.937Z,101161.09
2023-05-02T12:39:00.007Z,101158.88
2023-05-02T12:41:36.526Z,101167.94
2023-05-02T12:44:08.149Z,101161.31
2023-05-02T12:46:37.696Z,101143.38
2023-05-02T12:49:08.748Z,101151.13
2023-05-02T12:51:38.495Z,101133.91
2023-05-02T12:54:08.003Z,101142.06
2023-05-02T12:56:44.331Z,101145.56
2023-05-02T12:59:28.357Z,101134.81
2023-05-02T13:01:57.898Z,101128.03
2023-05-02T13:04:35.835Z,101124.00
2023-05-02T13:07:04.788Z,101121.66
2023-05-02T13:09:36.749Z,101122.22
2023-05-02T13:12:06.872Z,101130.97
2023-05-02T13:14:39.947Z,101121.97
2023-05-02T13:17:10.052Z,101132.94
2023-05-02T13:19:42.465Z,101124.31
2023-05-02T13:22:18.735Z,101127.56
2023-05-02T13:24:48.305Z,101087.47
2023-05-02T13:27:18.674Z,101109.97
2023-05-02T13:29:50.837Z,101107.44
2023-05-02T13:32:20.171Z,101120.50
2023-05-02T13:34:49.504Z,101122.94
2023-05-02T13:37:18.851Z,101110.03
2023-05-02T13:39:49.812Z,101112.88
2023-05-02T13:42:19.716Z,101102.00
2023-05-02T13:44:50.623Z,101100.63
2023-05-02T13:47:20.000Z,101082.03
2023-05-02T13:49:50.405Z,101109.63
2023-05-02T13:52:19.598Z,101105.19
2023-05-02T13:54:48.857Z,101097.75
2023-05-02T13:57:18.591Z,101087.63
2023-05-02T13:59:47.975Z,101095.34
2023-05-02T14:02:18.887Z,101093.19
2023-05-02T14:04:48.381Z,101096.63
2023-05-02T14:07:17.736Z,101086.72
2023-05-02T14:09:47.360Z,101076.16
2023-05-02T14:12:16.253Z,101083.31
2023-05-02T14:14:46.027Z,101095.44
2023-05-02T14:17:15.942Z,101085.63
2023-05-02T14:19:46.816Z,101087.72
2023-05-02T14:22:17.601Z,101069.50
2023-05-02T14:24:47.083Z,101071.22
2023-05-02T14:27:18.924Z,101082.28
2023-05-02T14:29:48.602Z,101065.28
2023-05-02T14:32:18.471Z,101078.53
2023-05-02T14:34:49.093Z,101061.59
2023-05-02T14:37:21.523Z,101058.06
2023-05-02T14:39:54.898Z,101063.31
2023-05-02T14:42:25.700Z,101064.16
2023-05-02T14:44:59.478Z,101069.41
2023-05-02T14:47:30.912Z,101055.00
2023-05-02T14:50:02.253Z,101056.97
2023-05-02T14:52:33.324Z,101062.63
2023-05-02T14:55:02.802Z,101058.78
2023-05-02T14:57:32.419Z,101042.72
2023-05-02T15:00:02.463Z,101057.19
2023-05-02T15:02:32.506Z,101052.19
2023-05-02T15:05:03.505Z,101044.38
2023-05-02T15:07:33.328Z,101047.38
2023-05-02T15:10:04.238Z,101043.53
2023-05-02T15:12:33.588Z,101049.94
2023-05-02T15:15:03.526Z,101046.66
2023-05-02T15:17:33.277Z,101053.13
2023-05-02T15:20:05.207Z,101020.88
2023-05-02T15:22:35.342Z,101034.19
2023-05-02T15:25:05.523Z,101022.16
2023-05-02T15:27:35.169Z,101050.53
2023-05-02T15:30:06.744Z,101012.50
2023-05-02T15:32:36.348Z,101026.97
2023-05-02T15:35:08.086Z,101028.91
2023-05-02T15:37:40.572Z,101036.28
2023-05-02T15:40:17.345Z,101033.94
2023-05-02T15:42:49.933Z,101024.63
2023-05-02T15:45:19.659Z,101034.28
2023-05-02T15:47:49.311Z,101020.91
2023-05-02T15:50:20.026Z,101031.25
2023-05-02T15:52:49.619Z,100982.03
2023-05-02T15:55:19.414Z,101029.91
2023-05-02T15:57:52.336Z,101025.88
2023-05-02T16:00:21.521Z,101022.22
2023-05-02T16:02:51.125Z,101004.84
2023-05-02T16:05:21.856Z,101015.84
2023-05-02T16:07:51.981Z,101001.66
2023-05-02T16:10:21.376Z,101008.22
2023-05-02T16:12:50.866Z,101007.16
2023-05-02T16:15:21.400Z,101013.84
2023-05-02T16:17:51.807Z,100981.91
2023-05-02T16:20:25.050Z,101008.84
2023-05-02T16:22:54.582Z,100993.41
2023-05-02T16:25:24.045Z,100995.56
2023-05-02T16:27:53.333Z,100983.06
2023-05-02T16:30:23.450Z,100991.88
2023-05-02T16:32:56.191Z,100952.59
2023-05-02T16:35:29.042Z,100988.16
2023-05-02T16:37:58.721Z,100974.28
2023-05-02T16:40:30.000Z,100993.41
2023-05-02T16:43:04.131Z,100998.28
2023-05-02T16:45:33.572Z,100992.53
2023-05-02T16:48:03.518Z,100981.66
2023-05-02T16:50:37.304Z,100987.69
2023-05-02T16:53:06.565Z,100927.72
2023-05-02T16:55:36.005Z,100977.13
2023-05-02T16:58:06.329Z,100977.91
2023-05-02T17:00:35.584Z,100991.78
2023-05-02T17:03:05.721Z,100970.91
2023-05-02T17:05:37.085Z,100987.47
2023-05-02T17:08:07.175Z,100974.44
2023-05-02T17:10:37.663Z,100981.09
2023-05-02T17:13:07.860Z,100999.97
2023-05-02T17:15:40.321Z,100995.94
2023-05-02T17:18:09.458Z,101001.28
2023-05-02T17:20:41.321Z,100993.50
2023-05-02T17:23:11.336Z,100994.22
2023-05-02T17:25:43.969Z,101004.19
2023-05-02T17:28:16.904Z,101001.72
2023-05-02T17:30:46.370Z,100990.56
2023-05-02T17:33:17.980Z,100971.59
2023-05-02T17:35:52.591Z,101005.06
2023-05-02T17:38:21.806Z,100981.09
2023-05-02T17:40:54.213Z,101001.41
2023-05-02T17:43:23.915Z,100961.91
2023-05-02T17:46:03.135Z,100997.41
2023-05-02T17:48:41.619Z,101017.88
2023-05-02T17:51:18.372Z,100977.31
2023-05-02T17:53:49.161Z,101027.75
2023-05-02T17:56:19.004Z,101020.06
2023-05-02T17:58:48.332Z,101033.59
2023-05-02T18:01:17.672Z,101025.06
2023-05-02T18:03:48.357Z,101032.78
2023-05-02T18:06:19.726Z,101035.78
2023-05-02T18:08:51.637Z,101004.63
2023-05-02T18:11:22.319Z,101037.78
2023-05-02T18:13:51.531Z,101033.28
2023-05-02T18:16:22.280Z,101029.00
2023-05-02T18:18:51.741Z,101023.97
2023-05-02T18:21:25.990Z,101031.88
2023-05-02T18:23:57.118Z,101026.72
2023-05-02T18:26:27.596Z,101024.53
2023-05-02T18:28:57.571Z,101026.06
2023-05-02T18:31:26.728Z,101026.38
2023-05-02T18:33:55.904Z,101006.00
2023-05-02T18:36:30.120Z,101018.31
2023-05-02T18:39:01.454Z,101024.69
2023-05-02T18:41:30.772Z,101006.56
2023-05-02T18:44:00.926Z,101027.09
2023-05-02T18:46:33.014Z,101026.22
2023-05-02T18:49:03.054Z,101030.31
2023-05-02T18:51:34.061Z,101038.81
2023-05-02T18:54:03.472Z,101031.53
2023-05-02T18:56:35.233Z,101033.81
2023-05-02T18:59:04.336Z,101034.22
2023-05-02T19:01:33.855Z,101034.91
2023-05-02T19:04:06.094Z,101019.13
2023-05-02T19:06:36.806Z,101038.25
2023-05-02T19:09:06.445Z,101034.31
2023-05-02T19:11:36.963Z,101023.66
2023-05-02T19:14:06.198Z,101022.91
2023-05-02T19:16:38.366Z,101003.38
2023-05-02T19:19:09.214Z,101021.19
2023-05-02T19:21:42.011Z,101029.53
2023-05-02T19:24:13.255Z,101018.03
2023-05-02T19:26:48.810Z,101003.50
2023-05-02T19:29:18.308Z,101027.19
2023-05-02T19:31:49.117Z,101032.22
2023-05-02T19:34:21.722Z,101009.09
2023-05-02T19:36:57.102Z,101039.81
2023-05-02T19:39:26.413Z,101023.66
2023-05-02T19:41:59.132Z,101024.56
2023-05-02T19:44:28.434Z,101020.66
2023-05-02T19:46:57.932Z,101016.75
2023-05-02T19:49:27.366Z,101034.97
2023-05-02T19:51:59.105Z,101010.63
2023-05-02T19:54:32.639Z,101005.50
2023-05-02T19:57:02.943Z,101026.91
2023-05-02T19:59:33.067Z,101049.31
2023-05-02T20:02:04.928Z,101026.13
2023-05-02T20:04:34.251Z,101037.06
2023-05-02T20:07:05.024Z,101032.19
2023-05-02T20:09:34.154Z,101050.19
2023-05-02T20:12:03.808Z,101023.88
2023-05-02T20:14:33.084Z,101026.56
2023-05-02T20:17:04.549Z,101000.28
2023-05-02T20:19:34.276Z,101038.06
2023-05-02T20:22:05.077Z,101039.25
2023-05-02T20:24:34.182Z,101036.47
2023-05-02T20:27:04.012Z,101035.19
2023-05-02T20:29:33.875Z,101017.63
2023-05-02T20:32:03.199Z,101035.91
2023-05-02T20:34:35.554Z,101030.53
2023-05-02T20:37:08.675Z,101015.69
2023-05-02T20:39:39.962Z,101025.44
2023-05-02T20:42:09.912Z,101027.38
2023-05-02T20:44:39.858Z,101008.03
2023-05-02T20:47:13.383Z,101013.75
2023-05-02T20:49:45.462Z,101032.41
2023-05-02T20:52:16.800Z,101034.00
2023-05-02T20:54:48.946Z,100997.94
2023-05-02T20:57:18.086Z,101033.25
2023-05-02T20:59:47.324Z,101022.44
2023-05-02T21:02:16.558Z,101029.50
2023-05-02T21:04:45.997Z,101033.94
2023-05-02T21:07:16.632Z,101043.31
2023-05-02T21:09:46.394Z,101046.88
2023-05-02T21:12:16.054Z,101048.06
2023-05-02T21:14:45.663Z,101042.28
2023-05-02T21:17:14.855Z,101010.31
2023-05-02T21:19:44.400Z,101029.59
2023-05-02T21:22:13.305Z,101048.84
2023-05-02T21:24:45.106Z,101025.09
2023-05-02T21:27:14.819Z,101043.69
2023-05-02T21:29:47.290Z,101046.25
2023-05-02T21:32:17.157Z,101048.31
2023-05-02T21:34:46.901Z,101058.13
2023-05-02T21:37:16.755Z,101029.28
2023-05-02T21:39:47.395Z,101047.38
2023-05-02T21:42:16.605Z,101046.66
2023-05-02T21:44:46.021Z,101033.25
2023-05-02T21:47:15.711Z,101050.78
2023-05-02T21:49:45.513Z,101040.88
2023-05-02T21:52:14.933Z,101035.28
2023-05-02T21:54:47.074Z,101032.09
2023-05-02T21:57:20.607Z,101024.78
2023-05-02T21:59:52.040Z,101034.50
2023-05-02T22:02:25.702Z,101021.25
2023-05-02T22:04:56.600Z,101016.47
2023-05-02T22:07:29.487Z,101027.16
2023-05-02T22:10:00.300Z,101029.97
2023-05-02T22:12:34.623Z,101024.25
2023-05-02T22:15:10.701Z,101036.53
2023-05-02T22:17:43.276Z,101039.59
2023-05-02T22:20:14.555Z,101016.44
2023-05-02T22:22:47.558Z,101039.19
2023-05-02T22:25:20.615Z,101043.63
2023-05-02T22:27:52.183Z,101041.69
2023-05-02T22:30:22.468Z,101021.00
2023-05-02T22:32:51.961Z,101029.91
2023-05-02T22:35:21.474Z,101038.28
2023-05-02T22:37:50.797Z,101035.28
2023-05-02T22:40:20.165Z,101044.78
2023-05-02T22:42:50.874Z,101037.09
2023-05-02T22:45:20.460Z,101047.94
2023-05-02T22:47:49.811Z,101044.44
2023-05-02T22:50:20.143Z,101041.28
2023-05-02T22:52:51.368Z,101039.59
2023-05-02T22:55:20.451Z,101053.38
2023-05-02T22:57:51.551Z,101042.50
2023-05-02T23:00:22.674Z,101047.13
2023-05-02T23:02:52.211Z,101056.50
2023-05-02T23:05:21.867Z,101045.16
2023-05-02T23:07:51.192Z,101051.72
2023-05-02T23:10:22.118Z,101054.94
2023-05-02T23:12:56.215Z,101053.59
2023-05-02T23:15:28.492Z,101013.75
2023-05-02T23:17:57.680Z,101060.03
2023-05-02T23:20:29.772Z,101033.25
2023-05-02T23:22:59.639Z,101061.84
2023-05-02T23:25:29.146Z,101052.59
2023-05-02T23:27:59.410Z,101040.03
2023-05-02T23:30:30.862Z,101036.75
2023-05-02T23:33:01.320Z,101061.25
2023-05-02T23:35:31.612Z,101041.28
2023-05-02T23:38:01.005Z,101059.53
2023-05-02T23:40:30.204Z,101064.91
2023-05-02T23:43:02.449Z,101059.19
2023-05-02T23:45:31.648Z,101052.25
2023-05-02T23:48:01.437Z,101046.63
2023-05-02T23:50:30.678Z,101046.28
2023-05-02T23:53:01.166Z,101034.22
2023-05-02T23:55:31.013Z,101035.16
2023-05-02T23:58:01.797Z,101044.22
